Terminal Aerodrome Forecast
Issued by NWS Grand Forks, ND

Home | Current Version | Previous Version | Text Only | Print | Product List | Glossary Off
Versions: 1 2 3 4 5 6 7 8 9 10 11 12 13 14 15 16

000
FTUS43 KFGF 271139
TAFGFK
TAF
KGFK 271139Z 2712/2812 19006KT P6SM SCT220 WS020/21035KT
     FM271500 19012KT P6SM SCT110
     FM272000 16015G21KT P6SM SCT110
     FM280100 16011KT P6SM SCT100
     FM280600 15011KT P6SM VCSH BKN080=

USA.gov is the U.S. government's official web portal to all federal, state and local government web resources and services.